< Cyclone 202117 2021 Season
Cyclone 202121 (noname)
General InformationTrack Information on Google Maps || ResourceGoogle EarthGE AnimationAtom FeedGeoJSON
Year Month Day Hour Lat. Long. Pressure (hPa) Wind (kt) Class Image Chart
2021 3 20 00 -12.0 97.2 1004 15 2 Image --
2021 3 20 06 -12.1 96.7 1004 15 2 Image --
2021 3 20 12 -12.0 96.2 1004 15 2 Image --
2021 3 20 18 -11.5 95.8 1004 20 2 Image --
2021 3 21 00 -11.6 95.4 1004 20 2 Image --
2021 3 21 06 -12.0 95.0 1004 20 2 Image --
2021 3 21 12 -12.0 94.3 1004 20 2 Image --
2021 3 21 18 -12.0 93.6 1004 20 2 Image --
2021 3 22 00 -12.0 93.3 1004 30 2 Image --
2021 3 22 06 -12.1 93.2 1005 30 2 Image --
2021 3 22 12 -12.2 92.8 1004 30 2 Image --
2021 3 22 18 -12.7 92.2 1003 30 2 Image --
2021 3 23 00 -12.4 92.0 1003 35 3 Image --
2021 3 23 06 -12.4 92.0 1003 35 3 Image --
2021 3 23 12 -12.3 91.8 1003 35 3 Image --
2021 3 23 18 -12.1 91.8 1003 30 2 Image --
2021 3 24 00 -11.8 91.5 1003 30 2 Image --
2021 3 24 06 -11.8 91.5 1002 30 2 Image --
2021 3 24 12 -11.8 91.8 1000 30 2 Image --
2021 3 24 18 -11.5 92.0 1001 30 2 Image --
2021 3 25 00 -11.2 91.9 1001 25 2 Image --
2021 3 25 06 -11.7 91.5 1001 25 2 Image --
2021 3 25 12 -11.5 92.1 1001 20 2 Image --
2021 3 25 18 -11.2 91.6 1001 20 2 Image --
2021 3 26 00 -10.8 91.1 1002 20 2 Image --
2021 3 26 06 -10.4 90.9 1002 20 2 Image --
2021 3 26 12 -10.4 90.6 1002 20 2 Image --
2021 3 26 18 -10.1 90.0 1002 20 2 Image --
< Cyclone 202117 2021 Season

Help